Time;durP1;ratioP1;P1;durP2;ratioP2;P2;SDS_P1;SDS_P2;PMS_P1;PMS_P2;Temp;Humidity;BMP_temperature;BMP_pressure;BME280_temperature;BME280_humidity;BME280_pressure;Samples;Min_cycle;Max_cycle;Signal;HPM_P1;HPM_P2
2022/04/02 00:00:31;;;;;;;7.22;2.13;;;6.40;77.70;;;;;;5017667;28;20468;-68
2022/04/02 00:02:57;;;;;;;3.22;1.70;;;6.40;77.90;;;;;;5021534;28;20499;-68
2022/04/02 00:05:27;;;;;;;6.63;2.00;;;6.30;77.90;;;;;;5036272;28;20032;-68
2022/04/02 00:07:53;;;;;;;13.57;2.20;;;6.30;78.20;;;;;;5024842;28;20120;-68
2022/04/02 00:10:18;;;;;;;3.25;2.10;;;6.30;78.60;;;;;;5018304;28;20053;-70
2022/04/02 00:12:45;;;;;;;2.67;1.75;;;6.20;78.80;;;;;;5031193;28;20642;-69
2022/04/02 00:15:11;;;;;;;3.63;1.95;;;6.20;79.30;;;;;;5017799;28;20124;-68
2022/04/02 00:17:37;;;;;;;3.72;1.58;;;6.10;79.50;;;;;;5020783;28;20492;-68
2022/04/02 00:20:04;;;;;;;8.75;1.80;;;6.00;79.90;;;;;;5030227;28;20030;-68
2022/04/02 00:22:33;;;;;;;4.18;2.08;;;6.00;80.20;;;;;;5022681;28;20216;-68
2022/04/02 00:24:59;;;;;;;4.10;1.58;;;6.00;80.80;;;;;;5018175;28;20079;-69
2022/04/02 00:27:25;;;;;;;6.13;2.00;;;5.90;80.90;;;;;;5018364;28;20124;-68
2022/04/02 00:29:51;;;;;;;2.67;1.55;;;5.90;81.20;;;;;;5028090;28;20167;-68
2022/04/02 00:32:16;;;;;;;4.13;2.25;;;5.80;81.40;;;;;;5025012;28;20129;-69
2022/04/02 00:34:42;;;;;;;3.70;2.00;;;5.80;81.50;;;;;;5037487;28;20072;-69
2022/04/02 00:37:08;;;;;;;6.90;2.33;;;5.80;81.70;;;;;;5021911;28;20033;-68
2022/04/02 00:39:33;;;;;;;5.25;2.03;;;5.80;81.70;;;;;;5018070;28;20370;-68
2022/04/02 00:41:59;;;;;;;3.53;1.73;;;5.80;81.80;;;;;;5029159;28;20048;-69
2022/04/02 00:44:26;;;;;;;2.72;1.73;;;5.80;82.00;;;;;;5018344;28;20038;-68
2022/04/02 00:46:52;;;;;;;3.72;2.00;;;5.70;82.00;;;;;;5034984;28;20087;-72
2022/04/02 00:49:18;;;;;;;4.68;2.65;;;5.70;82.00;;;;;;5026118;28;20038;-69
2022/04/02 00:51:45;;;;;;;2.45;1.77;;;5.70;82.00;;;;;;5017376;28;20042;-68
2022/04/02 00:54:16;;;;;;;2.58;1.90;;;5.70;82.00;;;;;;5023561;28;20025;-68
2022/04/02 00:56:43;;;;;;;2.92;1.88;;;5.70;82.10;;;;;;5024087;28;20049;-68
2022/04/02 00:59:10;;;;;;;3.15;1.85;;;5.70;82.20;;;;;;5018094;28;20026;-68
2022/04/02 01:01:37;;;;;;;2.45;1.60;;;5.70;82.40;;;;;;5029243;28;20063;-69
2022/04/02 01:04:07;;;;;;;3.35;1.50;;;5.70;82.30;;;;;;5017443;28;20033;-68
2022/04/02 01:06:40;;;;;;;3.28;1.75;;;5.60;82.30;;;;;;5019933;28;20083;-69
2022/04/02 01:09:10;;;;;;;2.83;2.20;;;5.60;82.40;;;;;;5035845;28;20120;-68
2022/04/02 01:11:42;;;;;;;5.13;1.63;;;5.60;82.70;;;;;;5018196;28;20029;-68
2022/04/02 01:14:08;;;;;;;2.65;1.85;;;5.60;82.90;;;;;;5028334;28;20029;-68
2022/04/02 01:16:35;;;;;;;7.25;2.00;;;5.60;83.10;;;;;;5031465;28;20033;-68
2022/04/02 01:19:06;;;;;;;2.72;1.40;;;5.50;83.00;;;;;;5024497;28;20075;-68
2022/04/02 01:21:33;;;;;;;4.57;1.63;;;5.60;83.10;;;;;;5014049;28;20111;-68
2022/04/02 01:24:10;;;;;;;4.90;1.67;;;5.50;83.10;;;;;;5026930;28;20036;-68
2022/04/02 01:26:37;;;;;;;2.75;1.50;;;5.50;83.20;;;;;;5024454;28;20022;-68
2022/04/02 01:29:12;;;;;;;4.15;1.92;;;5.60;83.30;;;;;;5026703;28;20022;-67
2022/04/02 01:31:44;;;;;;;2.80;1.90;;;5.50;83.20;;;;;;5020842;28;20136;-68
2022/04/02 01:34:12;;;;;;;2.63;1.70;;;5.50;83.10;;;;;;5013914;28;20034;-67
2022/04/02 01:36:40;;;;;;;3.20;1.80;;;5.50;83.00;;;;;;5031927;28;20028;-68
2022/04/02 01:39:28;;;;;;;5.40;1.50;;;5.50;83.00;;;;;;5032183;28;20032;-68
2022/04/02 01:41:53;;;;;;;3.85;2.00;;;5.50;83.00;;;;;;5018482;28;20041;-68
2022/04/02 01:44:26;;;;;;;4.35;1.88;;;5.50;82.90;;;;;;5029833;28;20018;-68
2022/04/02 01:46:52;;;;;;;2.92;1.80;;;5.50;82.90;;;;;;5022115;28;20048;-68
2022/04/02 01:49:18;;;;;;;2.85;1.77;;;5.50;82.80;;;;;;5019491;28;20074;-68
2022/04/02 01:51:45;;;;;;;5.75;1.88;;;5.50;82.90;;;;;;5031040;28;20067;-68
2022/04/02 01:54:17;;;;;;;3.72;1.73;;;5.50;82.90;;;;;;5020774;28;20030;-68
2022/04/02 01:56:43;;;;;;;7.07;1.67;;;5.40;82.90;;;;;;5024022;28;20254;-68
2022/04/02 01:59:09;;;;;;;2.40;1.50;;;5.50;82.90;;;;;;5011466;28;20037;-68
2022/04/02 02:01:35;;;;;;;4.60;1.90;;;5.40;82.80;;;;;;5026224;28;20064;-68
2022/04/02 02:04:01;;;;;;;4.20;1.85;;;5.50;82.90;;;;;;5025613;28;20076;-68
2022/04/02 02:06:27;;;;;;;3.33;1.73;;;5.40;82.90;;;;;;5017240;28;20426;-68
2022/04/02 02:08:53;;;;;;;3.15;1.70;;;5.40;82.70;;;;;;5027423;28;20509;-68
2022/04/02 02:11:43;;;;;;;4.32;1.88;;;5.40;82.90;;;;;;5015134;28;20137;-68
2022/04/02 02:14:21;;;;;;;3.97;1.55;;;5.40;82.90;;;;;;5025977;28;20411;-68
2022/04/02 02:16:56;;;;;;;5.30;1.90;;;5.40;83.00;;;;;;5022615;28;20041;-68
2022/04/02 02:19:24;;;;;;;3.85;1.92;;;5.40;83.20;;;;;;5031706;28;20028;-68
2022/04/02 02:21:51;;;;;;;4.57;1.42;;;5.40;83.20;;;;;;5018550;28;20124;-68
2022/04/02 02:24:17;;;;;;;2.33;1.42;;;5.30;83.00;;;;;;5031914;28;20036;-68
2022/04/02 02:26:42;;;;;;;2.40;1.42;;;5.30;82.90;;;;;;5030623;28;20429;-68
2022/04/02 02:29:08;;;;;;;3.33;1.52;;;5.30;83.10;;;;;;5031090;28;20060;-68
2022/04/02 02:31:37;;;;;;;1.70;1.33;;;5.30;83.10;;;;;;5030311;28;20029;-68
2022/04/02 02:36:58;;;;;;;8.98;1.55;;;5.20;83.20;;;;;;5030839;28;20026;-68
2022/04/02 02:39:24;;;;;;;3.05;1.60;;;5.20;83.30;;;;;;5030033;28;20088;-68
2022/04/02 02:42:09;;;;;;;6.70;1.35;;;5.20;83.20;;;;;;5029446;28;20118;-68
2022/04/02 02:44:43;;;;;;;5.93;1.38;;;5.20;83.20;;;;;;5029747;28;20033;-69
2022/04/02 02:47:16;;;;;;;8.15;1.73;;;5.20;83.40;;;;;;5030851;28;20044;-68
2022/04/02 02:49:44;;;;;;;2.70;1.50;;;5.20;83.50;;;;;;5029200;28;20025;-68
2022/04/02 02:52:14;;;;;;;4.80;1.65;;;5.20;83.80;;;;;;5030544;28;20032;-68
2022/04/02 02:54:40;;;;;;;3.70;1.83;;;5.20;83.80;;;;;;5032073;28;20029;-68
2022/04/02 02:57:07;;;;;;;3.40;1.30;;;5.20;84.00;;;;;;5029051;28;20045;-68
2022/04/02 02:59:36;;;;;;;11.35;1.65;;;5.10;84.30;;;;;;5029821;28;20498;-68
2022/04/02 03:02:03;;;;;;;1.58;1.10;;;5.10;84.40;;;;;;5028719;28;20111;-68
2022/04/02 03:04:30;;;;;;;3.45;1.25;;;5.10;84.10;;;;;;5029544;28;20370;-68
2022/04/02 03:07:02;;;;;;;3.60;1.50;;;5.10;84.60;;;;;;5029925;28;20031;-68
2022/04/02 03:09:31;;;;;;;3.00;1.60;;;5.10;84.00;;;;;;5043443;28;20018;-68
2022/04/02 03:11:57;;;;;;;2.10;1.48;;;5.10;84.20;;;;;;5029393;28;20484;-68
2022/04/02 03:14:24;;;;;;;3.45;1.33;;;5.10;84.60;;;;;;5029354;28;20045;-68
2022/04/02 03:16:50;;;;;;;4.43;1.40;;;5.10;84.80;;;;;;5030554;28;20420;-68
2022/04/02 03:19:17;;;;;;;3.55;1.42;;;5.00;84.60;;;;;;5029902;28;20017;-68
2022/04/02 03:21:47;;;;;;;8.35;1.73;;;5.00;84.60;;;;;;5028868;28;20042;-68
2022/04/02 03:24:13;;;;;;;2.35;1.55;;;5.00;84.70;;;;;;5030425;28;20022;-68
2022/04/02 03:26:39;;;;;;;2.30;1.83;;;5.00;84.50;;;;;;5030205;28;20124;-68
2022/04/02 03:29:29;;;;;;;7.20;1.70;;;5.00;84.70;;;;;;5026411;28;20025;-68
2022/04/02 03:31:56;;;;;;;1.88;1.45;;;5.00;84.80;;;;;;5029344;28;20120;-68
2022/04/02 03:34:24;;;;;;;3.60;1.90;;;5.00;85.00;;;;;;5030477;28;20121;-69
2022/04/02 03:36:56;;;;;;;3.65;1.63;;;5.00;85.10;;;;;;5030208;28;20112;-69
2022/04/02 03:39:21;;;;;;;4.97;1.67;;;4.90;85.10;;;;;;5012549;28;20556;-68
2022/04/02 03:41:53;;;;;;;5.72;1.80;;;4.90;85.60;;;;;;5022209;28;20045;-69
2022/04/02 03:44:19;;;;;;;4.50;1.75;;;4.90;86.00;;;;;;5022957;28;20042;-69
2022/04/02 03:49:42;;;;;;;1.75;1.40;;;4.90;86.30;;;;;;5030038;28;20024;-68
2022/04/02 03:52:10;;;;;;;5.85;1.92;;;4.80;86.20;;;;;;5025252;28;20029;-69
2022/04/02 03:54:38;;;;;;;1.90;1.30;;;4.80;86.30;;;;;;5028630;28;20033;-69
2022/04/02 03:57:10;;;;;;;1.67;1.50;;;4.80;86.30;;;;;;5010291;28;20053;-68
2022/04/02 03:59:36;;;;;;;3.40;1.25;;;4.80;86.50;;;;;;5037530;28;20025;-68
2022/04/02 04:02:04;;;;;;;2.33;1.50;;;4.80;86.70;;;;;;5029764;28;20100;-68
2022/04/02 04:04:31;;;;;;;3.70;2.08;;;4.80;86.70;;;;;;5029783;28;20492;-67
2022/04/02 04:06:57;;;;;;;4.10;1.50;;;4.80;86.60;;;;;;5029090;28;20514;-68
2022/04/02 04:09:24;;;;;;;3.10;1.60;;;4.80;86.70;;;;;;5029818;28;20017;-68
2022/04/02 04:11:51;;;;;;;1.90;1.52;;;4.80;86.70;;;;;;5029377;28;20389;-69
2022/04/02 04:14:19;;;;;;;3.35;1.95;;;4.80;86.70;;;;;;5027028;28;20155;-68
2022/04/02 04:16:47;;;;;;;3.42;1.80;;;4.80;86.60;;;;;;5028051;28;20033;-68
2022/04/02 04:19:13;;;;;;;4.32;1.90;;;4.80;86.40;;;;;;5013890;28;20033;-67
2022/04/02 04:21:40;;;;;;;5.43;2.20;;;4.80;86.30;;;;;;5020445;28;20493;-68
2022/04/02 04:24:08;;;;;;;3.53;1.90;;;4.80;86.20;;;;;;5017068;28;20156;-68
2022/04/02 04:26:34;;;;;;;6.97;1.77;;;4.90;86.30;;;;;;5029166;28;20064;-68
2022/04/02 04:29:00;;;;;;;5.13;1.98;;;4.90;86.70;;;;;;5023734;28;20033;-68
2022/04/02 04:31:26;;;;;;;4.43;1.98;;;4.90;87.10;;;;;;5039466;28;20439;-68
2022/04/02 04:33:51;;;;;;;3.47;2.13;;;4.80;87.30;;;;;;5010626;28;20117;-68
2022/04/02 04:36:18;;;;;;;4.03;1.67;;;4.90;87.60;;;;;;5024351;28;20033;-68
2022/04/02 04:38:46;;;;;;;4.18;1.50;;;4.80;87.50;;;;;;5033063;28;20112;-68
2022/04/02 04:41:17;;;;;;;5.07;1.90;;;4.80;87.50;;;;;;5027268;28;20076;-68
2022/04/02 04:43:49;;;;;;;2.90;1.63;;;4.80;87.60;;;;;;5036948;28;20133;-69
2022/04/02 04:46:19;;;;;;;6.83;1.87;;;4.90;87.50;;;;;;5021296;28;20444;-69
2022/04/02 04:48:47;;;;;;;3.67;2.03;;;4.90;87.40;;;;;;5015524;28;20117;-70
2022/04/02 04:51:14;;;;;;;7.35;1.80;;;4.90;87.20;;;;;;5032068;28;20549;-69
2022/04/02 04:53:40;;;;;;;11.32;2.13;;;4.90;87.20;;;;;;5017459;28;20118;-69
2022/04/02 04:56:08;;;;;;;3.03;1.80;;;4.90;87.00;;;;;;5012836;28;20026;-69
2022/04/02 04:58:34;;;;;;;4.25;1.88;;;5.00;87.20;;;;;;5030345;28;20022;-69
2022/04/02 05:01:04;;;;;;;4.30;2.28;;;5.00;87.10;;;;;;5033777;28;20392;-69
2022/04/02 05:03:34;;;;;;;7.10;1.75;;;5.00;87.10;;;;;;5015519;28;20112;-69
2022/04/02 05:06:07;;;;;;;3.47;1.92;;;5.00;87.10;;;;;;5025929;28;20025;-68
2022/04/02 05:08:33;;;;;;;4.82;2.10;;;5.00;87.10;;;;;;5027699;28;20550;-69
2022/04/02 05:11:01;;;;;;;4.25;1.90;;;5.00;87.00;;;;;;5030758;28;20124;-69
2022/04/02 05:13:40;;;;;;;3.05;2.00;;;5.00;87.10;;;;;;5035163;28;20113;-68
2022/04/02 05:16:06;;;;;;;5.68;1.90;;;5.00;87.00;;;;;;5012520;28;20495;-68
2022/04/02 05:18:32;;;;;;;6.00;2.10;;;4.90;87.00;;;;;;5022917;28;20120;-69
2022/04/02 05:20:58;;;;;;;5.72;1.52;;;5.00;87.00;;;;;;5029379;28;20690;-69
2022/04/02 05:23:25;;;;;;;3.78;1.80;;;5.00;87.00;;;;;;5032063;28;20045;-69
2022/04/02 05:25:55;;;;;;;1.90;1.58;;;5.00;87.00;;;;;;5031458;28;20064;-69
2022/04/02 05:28:24;;;;;;;4.25;1.92;;;5.00;86.90;;;;;;5031325;28;20033;-68
2022/04/02 05:30:51;;;;;;;8.48;2.50;;;5.00;86.90;;;;;;5030125;28;20029;-68
2022/04/02 05:33:18;;;;;;;1.75;1.42;;;5.00;86.90;;;;;;5031774;28;20032;-69
2022/04/02 05:35:43;;;;;;;9.88;2.05;;;5.00;86.80;;;;;;5032601;28;20071;-68
2022/04/02 05:38:09;;;;;;;5.80;1.80;;;5.00;86.70;;;;;;5031799;28;20112;-69
2022/04/02 05:40:39;;;;;;;5.20;1.98;;;5.00;86.60;;;;;;5031108;28;20029;-69
2022/04/02 05:43:06;;;;;;;5.50;1.90;;;5.00;86.50;;;;;;5031348;28;20183;-68
2022/04/02 05:45:32;;;;;;;3.30;1.83;;;5.10;86.60;;;;;;5030547;28;20029;-68
2022/04/02 05:47:58;;;;;;;3.25;1.33;;;5.10;86.90;;;;;;5032063;28;20555;-68
2022/04/02 05:50:25;;;;;;;3.85;1.58;;;5.10;87.40;;;;;;5033870;28;20109;-68
2022/04/02 05:52:51;;;;;;;4.63;1.58;;;5.00;87.80;;;;;;5032243;28;20050;-69
2022/04/02 05:55:17;;;;;;;2.50;1.60;;;5.00;88.00;;;;;;5034037;28;20027;-68
2022/04/02 05:57:44;;;;;;;3.70;1.35;;;5.00;87.80;;;;;;5032309;28;20479;-69
2022/04/02 06:00:12;;;;;;;3.22;1.80;;;5.00;87.80;;;;;;5028542;28;20006;-69
2022/04/02 06:02:41;;;;;;;2.60;1.60;;;5.00;87.60;;;;;;5013695;28;20112;-69
2022/04/02 06:05:08;;;;;;;7.55;1.83;;;5.00;87.30;;;;;;5018695;28;20030;-69
2022/04/02 06:07:34;;;;;;;4.50;1.90;;;5.00;87.10;;;;;;5033279;28;20030;-68
2022/04/02 06:10:02;;;;;;;10.05;2.17;;;5.00;86.90;;;;;;5023501;28;20044;-69
2022/04/02 06:12:29;;;;;;;2.97;1.70;;;5.10;86.90;;;;;;5032046;28;20045;-68
2022/04/02 06:14:54;;;;;;;3.35;1.95;;;5.10;87.20;;;;;;5019545;28;20037;-68
2022/04/02 06:17:20;;;;;;;3.90;1.92;;;5.10;87.00;;;;;;5031889;28;20026;-68
2022/04/02 06:19:45;;;;;;;2.97;1.70;;;5.10;87.00;;;;;;5033589;28;20068;-68
2022/04/02 06:22:11;;;;;;;2.72;1.60;;;5.10;87.10;;;;;;5036509;28;20412;-68
2022/04/02 06:24:37;;;;;;;2.00;1.45;;;5.10;87.20;;;;;;5038031;28;20032;-69
2022/04/02 06:27:03;;;;;;;6.65;1.90;;;5.10;87.30;;;;;;5020641;28;20041;-68
2022/04/02 06:29:29;;;;;;;4.82;1.52;;;5.10;87.30;;;;;;5036543;28;20102;-68
2022/04/02 06:31:55;;;;;;;6.25;1.60;;;5.10;87.30;;;;;;5037175;28;20041;-68
2022/04/02 06:34:21;;;;;;;4.03;1.80;;;5.10;87.30;;;;;;5020629;28;20036;-68
2022/04/02 06:36:49;;;;;;;1.85;1.48;;;5.20;87.40;;;;;;5033554;28;20616;-68
2022/04/02 06:39:17;;;;;;;4.35;1.60;;;5.20;87.50;;;;;;5019771;28;20038;-68
2022/04/02 06:41:43;;;;;;;1.95;1.40;;;5.20;87.00;;;;;;5032511;28;20053;-69
2022/04/02 06:44:09;;;;;;;2.10;1.38;;;5.20;87.40;;;;;;5029588;28;20456;-69
2022/04/02 06:46:38;;;;;;;2.80;1.77;;;5.20;88.20;;;;;;5017750;28;20037;-68
2022/04/02 06:49:04;;;;;;;2.47;1.52;;;5.20;88.50;;;;;;5031421;28;20029;-68
2022/04/02 06:51:33;;;;;;;2.10;1.40;;;5.10;88.90;;;;;;5031296;28;20065;-68
2022/04/02 06:53:58;;;;;;;2.63;1.15;;;5.10;88.90;;;;;;5031116;28;20049;-69
2022/04/02 06:56:24;;;;;;;4.28;1.55;;;5.10;88.90;;;;;;5030678;28;20133;-68
2022/04/02 06:58:50;;;;;;;1.77;1.35;;;5.00;89.00;;;;;;5031870;28;20036;-68
2022/04/02 07:01:27;;;;;;;1.92;1.30;;;4.90;89.40;;;;;;5030471;28;20033;-68
2022/04/02 07:03:53;;;;;;;0.90;0.90;;;4.90;89.80;;;;;;5030351;28;20037;-68
2022/04/02 07:06:19;;;;;;;5.28;1.55;;;4.80;90.00;;;;;;5031647;28;20021;-68
2022/04/02 07:08:44;;;;;;;5.93;1.70;;;4.90;90.00;;;;;;5030209;28;20064;-68
2022/04/02 07:11:10;;;;;;;4.78;1.52;;;4.80;90.00;;;;;;5029734;28;20104;-68
2022/04/02 07:13:36;;;;;;;2.13;1.30;;;4.80;90.10;;;;;;5028810;28;20084;-68
2022/04/02 07:16:02;;;;;;;2.20;1.42;;;4.90;90.20;;;;;;5028978;28;20076;-69
2022/04/02 07:18:28;;;;;;;5.65;1.70;;;4.80;90.10;;;;;;5029893;28;20037;-69
2022/04/02 07:20:54;;;;;;;4.68;2.00;;;4.80;90.10;;;;;;5028829;28;20493;-69
2022/04/02 07:23:21;;;;;;;14.93;1.95;;;4.90;90.20;;;;;;5027599;28;20025;-69
2022/04/02 07:25:50;;;;;;;2.08;1.50;;;4.90;90.20;;;;;;5027991;28;20036;-69
2022/04/02 07:28:18;;;;;;;2.17;1.20;;;5.00;90.20;;;;;;5029384;28;20034;-69
2022/04/02 07:30:43;;;;;;;9.27;1.60;;;5.00;90.20;;;;;;5028933;28;20379;-69
2022/04/02 07:33:18;;;;;;;2.55;1.60;;;5.00;90.10;;;;;;5027976;28;20061;-69
2022/04/02 07:35:57;;;;;;;1.27;1.17;;;5.10;90.10;;;;;;5029279;28;20469;-69
2022/04/02 07:39:01;;;;;;;2.53;1.17;;;5.10;90.10;;;;;;5029505;28;20021;-68
2022/04/02 07:42:13;;;;;;;1.98;1.40;;;5.20;90.10;;;;;;5027119;28;20049;-69
2022/04/02 07:44:54;;;;;;;1.40;1.17;;;5.20;90.10;;;;;;5026592;28;20025;-69
2022/04/02 07:47:23;;;;;;;1.40;1.30;;;5.20;90.10;;;;;;5024329;28;20026;-69
2022/04/02 07:49:54;;;;;;;3.83;1.50;;;5.30;90.10;;;;;;5027110;28;20077;-69
2022/04/02 07:52:22;;;;;;;8.40;1.73;;;5.30;90.10;;;;;;5025964;28;20029;-69
2022/04/02 07:54:54;;;;;;;2.20;1.35;;;5.30;90.10;;;;;;5026525;28;20094;-69
2022/04/02 07:57:34;;;;;;;0.60;0.60;;;5.40;90.20;;;;;;5026283;28;20126;-69
2022/04/02 08:00:03;;;;;;;1.20;0.95;;;5.40;90.30;;;;;;5026522;28;20422;-69
2022/04/02 08:02:43;;;;;;;1.05;0.95;;;5.40;90.30;;;;;;5028023;28;20040;-69
2022/04/02 08:05:12;;;;;;;;;;;5.40;90.30;;;;;;5027536;28;20026;-69
2022/04/02 08:07:54;;;;;;;3.67;1.17;;;5.40;90.40;;;;;;5026608;28;20428;-69
2022/04/02 08:10:24;;;;;;;2.92;1.40;;;5.30;90.40;;;;;;5027393;28;20033;-69
2022/04/02 08:12:51;;;;;;;1.20;1.10;;;5.40;90.40;;;;;;5040886;28;20090;-68
2022/04/02 08:15:19;;;;;;;3.88;1.63;;;5.40;90.40;;;;;;5026944;28;20108;-69
2022/04/02 08:17:47;;;;;;;3.83;1.40;;;5.40;90.40;;;;;;5028026;28;20032;-69
2022/04/02 08:20:17;;;;;;;1.13;1.08;;;5.40;90.50;;;;;;5027435;28;20033;-69
2022/04/02 08:22:43;;;;;;;8.93;1.70;;;5.50;90.50;;;;;;5028597;28;20041;-68
2022/04/02 08:25:10;;;;;;;4.75;1.10;;;5.50;90.50;;;;;;5032416;28;20179;-69
2022/04/02 08:28:05;;;;;;;3.08;1.30;;;5.60;90.40;;;;;;5032595;28;20057;-66
2022/04/02 08:30:38;;;;;;;1.38;1.08;;;5.60;90.40;;;;;;5031578;28;20478;-65
2022/04/02 08:33:37;;;;;;;0.70;0.70;;;5.60;90.50;;;;;;5033200;28;20033;-65
2022/04/02 08:36:15;;;;;;;0.88;0.88;;;5.60;90.50;;;;;;5034360;28;20073;-66
2022/04/02 08:38:52;;;;;;;3.30;1.30;;;5.60;90.40;;;;;;5020164;28;20044;-66
2022/04/02 08:41:27;;;;;;;1.73;1.33;;;5.70;90.30;;;;;;5032908;28;20564;-65
2022/04/02 08:44:40;;;;;;;1.60;1.02;;;5.70;90.50;;;;;;5032688;28;20492;-67
2022/04/02 08:47:27;;;;;;;0.70;0.70;;;5.70;90.50;;;;;;5026100;28;20057;-66
2022/04/02 08:50:12;;;;;;;4.30;1.20;;;5.70;90.50;;;;;;5031291;28;20044;-66
2022/04/02 08:52:43;;;;;;;2.55;2.15;;;5.70;90.50;;;;;;5034009;28;20037;-67
2022/04/02 08:55:15;;;;;;;5.85;1.30;;;5.80;90.50;;;;;;5031591;28;20029;-64
2022/04/02 08:57:53;;;;;;;4.28;1.92;;;5.80;90.60;;;;;;5022948;28;20045;-66
2022/04/02 09:00:24;;;;;;;4.00;1.75;;;5.80;90.60;;;;;;5032963;28;20112;-65
2022/04/02 09:03:20;;;;;;;3.90;0.98;;;5.80;90.40;;;;;;5028060;28;20512;-65
2022/04/02 09:06:04;;;;;;;2.78;1.40;;;5.90;90.50;;;;;;5021563;28;20099;-65
2022/04/02 09:08:48;;;;;;;;;;;5.90;90.50;;;;;;5025625;28;20037;-67
2022/04/02 09:11:21;;;;;;;2.33;0.98;;;5.90;90.50;;;;;;5022172;28;19917;-65
2022/04/02 09:14:19;;;;;;;3.35;1.50;;;5.90;90.50;;;;;;5020535;28;20366;-65
2022/04/02 09:17:22;;;;;;;4.05;0.98;;;5.90;90.50;;;;;;5019444;28;20068;-65
2022/04/02 09:20:07;;;;;;;1.83;1.30;;;6.00;90.60;;;;;;5014398;28;20362;-65
2022/04/02 09:22:52;;;;;;;3.05;1.20;;;6.00;90.60;;;;;;5014273;28;20481;-66
2022/04/02 09:25:41;;;;;;;1.42;1.13;;;6.00;90.50;;;;;;5029432;28;20033;-65
2022/04/02 09:28:22;;;;;;;0.68;0.68;;;6.10;90.50;;;;;;5027550;28;20116;-64
2022/04/02 09:31:13;;;;;;;1.13;0.93;;;6.10;90.60;;;;;;5017298;28;20029;-65
2022/04/02 09:34:00;;;;;;;3.67;2.55;;;6.20;90.60;;;;;;5024144;28;20034;-65
2022/04/02 09:37:20;;;;;;;1.05;0.88;;;6.20;90.60;;;;;;5013947;28;20092;-65
2022/04/02 09:39:45;;;;;;;0.90;0.90;;;6.20;90.60;;;;;;5013895;28;20386;-65
2022/04/02 09:42:25;;;;;;;1.02;0.93;;;6.30;90.60;;;;;;5030224;28;20095;-65
2022/04/02 09:45:01;;;;;;;7.00;1.60;;;6.30;90.70;;;;;;5021558;28;20408;-65
2022/04/02 09:47:36;;;;;;;1.77;0.82;;;6.30;90.60;;;;;;5013915;28;20072;-67
2022/04/02 09:50:08;;;;;;;1.40;1.27;;;6.30;90.50;;;;;;5027831;28;20029;-65
2022/04/02 09:52:37;;;;;;;3.42;1.30;;;6.40;90.50;;;;;;5033220;28;20036;-65
2022/04/02 09:55:05;;;;;;;7.00;1.25;;;6.40;90.40;;;;;;5029345;28;20117;-65
2022/04/02 09:57:53;;;;;;;7.32;0.95;;;6.40;90.40;;;;;;5026262;28;20045;-65
2022/04/02 10:00:21;;;;;;;3.50;1.40;;;6.50;90.40;;;;;;5021750;28;20052;-65
2022/04/02 10:03:05;;;;;;;2.17;0.98;;;6.50;90.30;;;;;;5033157;28;20033;-65
2022/04/02 10:05:57;;;;;;;0.88;0.68;;;6.50;90.30;;;;;;5033620;28;20357;-65
2022/04/02 10:08:39;;;;;;;4.85;1.30;;;6.60;90.40;;;;;;5031295;28;20053;-71
2022/04/02 10:11:11;;;;;;;3.92;1.17;;;6.60;89.90;;;;;;5030351;28;20124;-68
2022/04/02 10:13:39;;;;;;;2.28;1.20;;;6.60;89.70;;;;;;5031119;28;20033;-67
2022/04/02 10:16:06;;;;;;;3.40;1.92;;;6.60;89.70;;;;;;5032275;28;20120;-67
2022/04/02 10:18:36;;;;;;;2.58;1.23;;;6.60;90.10;;;;;;5031656;28;20499;-66
2022/04/02 10:21:06;;;;;;;1.20;1.08;;;6.70;90.20;;;;;;5026177;28;20029;-66
2022/04/02 10:23:36;;;;;;;4.60;1.00;;;6.70;90.10;;;;;;5020624;28;20029;-67
2022/04/02 10:26:22;;;;;;;1.33;0.85;;;6.70;89.80;;;;;;5018145;28;20169;-66
2022/04/02 10:28:54;;;;;;;1.17;1.08;;;6.70;90.00;;;;;;5022830;28;20053;-66
2022/04/02 10:31:49;;;;;;;0.80;0.80;;;6.70;89.70;;;;;;5029303;28;20033;-66
2022/04/02 10:34:59;;;;;;;1.17;0.75;;;6.80;89.90;;;;;;5028883;28;20582;-68
2022/04/02 10:37:39;;;;;;;2.17;1.00;;;6.80;89.40;;;;;;5030138;28;20095;-68
2022/04/02 10:40:12;;;;;;;1.15;1.05;;;6.90;89.30;;;;;;5012882;28;20030;-68
2022/04/02 10:42:41;;;;;;;1.98;1.30;;;6.90;89.20;;;;;;5023645;28;20041;-68
2022/04/02 10:45:14;;;;;;;3.15;0.90;;;6.90;89.10;;;;;;5019346;28;20041;-67
2022/04/02 10:48:06;;;;;;;3.67;0.98;;;7.00;89.30;;;;;;5029047;28;20029;-67
2022/04/02 10:50:32;;;;;;;0.50;0.50;;;7.00;89.70;;;;;;5028412;28;20038;-67
2022/04/02 10:53:01;;;;;;;6.43;0.88;;;7.00;89.40;;;;;;5029832;28;20040;-66
2022/04/02 10:55:28;;;;;;;2.50;1.38;;;7.00;89.30;;;;;;5028364;28;20031;-63
2022/04/02 10:57:56;;;;;;;1.27;0.70;;;7.10;88.80;;;;;;5030059;28;20073;-63
2022/04/02 11:00:28;;;;;;;0.95;0.90;;;7.10;89.00;;;;;;5028880;28;20041;-64
2022/04/02 11:03:05;;;;;;;0.85;0.80;;;7.10;89.10;;;;;;5028436;28;20056;-64
2022/04/02 11:05:38;;;;;;;1.05;0.93;;;7.20;89.10;;;;;;5029998;28;20049;-64
2022/04/02 11:08:12;;;;;;;0.80;0.80;;;7.20;88.80;;;;;;5027276;28;20032;-64
2022/04/02 11:10:39;;;;;;;0.50;0.50;;;7.20;88.70;;;;;;5021715;28;20039;-64
2022/04/02 11:13:08;;;;;;;5.93;1.48;;;7.20;88.50;;;;;;5026765;28;20033;-64
2022/04/02 11:15:40;;;;;;;3.97;1.13;;;7.30;88.40;;;;;;5026172;28;20021;-64
2022/04/02 11:18:16;;;;;;;3.83;1.50;;;7.20;87.80;;;;;;5027973;28;20043;-64
2022/04/02 11:20:43;;;;;;;5.85;1.27;;;7.20;87.40;;;;;;5026193;28;20505;-63
2022/04/02 11:23:20;;;;;;;4.38;1.05;;;7.30;86.80;;;;;;5027339;28;20055;-63
2022/04/02 11:25:52;;;;;;;4.07;1.15;;;7.30;87.40;;;;;;5029355;28;20041;-63
2022/04/02 11:28:23;;;;;;;1.38;1.27;;;7.30;87.60;;;;;;5029242;28;20512;-63
2022/04/02 11:31:03;;;;;;;1.60;0.80;;;7.30;87.40;;;;;;5028998;28;20538;-64
2022/04/02 11:33:45;;;;;;;2.33;1.00;;;7.40;88.10;;;;;;5019896;28;20037;-64
2022/04/02 11:36:14;;;;;;;2.20;1.33;;;7.40;88.30;;;;;;5027153;28;20029;-64
2022/04/02 11:39:01;;;;;;;1.80;1.00;;;7.40;88.20;;;;;;5027153;28;20041;-64
2022/04/02 11:41:41;;;;;;;1.52;1.42;;;7.50;88.20;;;;;;5027744;28;20091;-64
2022/04/02 11:44:09;;;;;;;0.68;0.68;;;7.50;88.10;;;;;;5027441;28;20087;-64
2022/04/02 11:46:55;;;;;;;1.35;1.00;;;7.60;88.50;;;;;;5027842;28;20022;-64
2022/04/02 11:49:37;;;;;;;1.88;1.08;;;7.60;87.50;;;;;;5026609;28;20029;-65
2022/04/02 11:52:07;;;;;;;5.05;1.35;;;7.60;87.40;;;;;;5026701;28;20476;-66
2022/04/02 11:54:48;;;;;;;2.28;1.50;;;7.60;87.10;;;;;;5027829;28;20032;-65
2022/04/02 11:57:15;;;;;;;10.13;1.75;;;7.60;86.80;;;;;;5028619;28;20060;-65
2022/04/02 11:59:53;;;;;;;1.45;0.93;;;7.60;87.60;;;;;;5028764;28;20064;-66
2022/04/02 12:02:39;;;;;;;1.65;1.38;;;7.70;86.90;;;;;;5026543;28;20354;-66
2022/04/02 12:05:06;;;;;;;3.55;1.23;;;7.70;86.60;;;;;;5029551;28;20033;-66
2022/04/02 12:07:42;;;;;;;4.72;1.00;;;7.70;86.80;;;;;;5029011;28;20104;-66
2022/04/02 12:10:21;;;;;;;2.58;1.00;;;7.70;86.70;;;;;;5027737;28;20037;-64
2022/04/02 12:12:52;;;;;;;6.78;1.45;;;7.70;86.70;;;;;;5025931;28;20518;-64
2022/04/02 12:15:22;;;;;;;2.72;1.85;;;7.80;87.00;;;;;;5026897;28;20022;-64
2022/04/02 12:17:52;;;;;;;1.23;0.75;;;7.80;85.30;;;;;;5026523;28;20076;-64
2022/04/02 12:20:39;;;;;;;0.60;0.60;;;7.80;86.10;;;;;;5025693;28;20134;-64
2022/04/02 12:23:11;;;;;;;1.95;1.45;;;7.80;85.90;;;;;;5026179;28;20100;-64
2022/04/02 12:25:44;;;;;;;2.40;1.05;;;7.90;86.00;;;;;;5023775;28;20423;-66
2022/04/02 12:28:17;;;;;;;3.03;1.08;;;7.90;85.30;;;;;;5027300;28;20029;-65
2022/04/02 12:30:48;;;;;;;1.00;0.93;;;7.90;84.30;;;;;;5025688;28;20029;-65
2022/04/02 12:33:25;;;;;;;2.05;1.23;;;8.00;85.60;;;;;;5026775;28;20029;-65
2022/04/02 12:36:05;;;;;;;3.45;1.00;;;8.00;85.10;;;;;;5028521;28;20608;-66
2022/04/02 12:38:35;;;;;;;6.75;1.20;;;8.00;84.90;;;;;;5027120;28;20429;-65
2022/04/02 12:41:02;;;;;;;0.75;0.73;;;8.10;84.70;;;;;;5027888;28;20029;-65
2022/04/02 12:43:34;;;;;;;3.13;1.10;;;8.00;84.30;;;;;;5029487;28;20065;-65
2022/04/02 12:46:01;;;;;;;4.68;0.93;;;8.10;83.90;;;;;;5027746;28;20510;-66
2022/04/02 12:48:46;;;;;;;1.10;0.80;;;8.10;84.00;;;;;;5022286;28;20136;-66
2022/04/02 12:51:14;;;;;;;1.45;1.00;;;8.20;83.20;;;;;;5025670;28;20060;-64
2022/04/02 12:53:45;;;;;;;0.70;0.70;;;8.20;83.70;;;;;;5026434;28;20029;-65
2022/04/02 12:56:24;;;;;;;1.90;1.30;;;8.20;84.00;;;;;;5028960;28;20057;-65
2022/04/02 12:58:52;;;;;;;3.88;1.48;;;8.20;82.70;;;;;;5028125;28;20041;-66
2022/04/02 13:01:30;;;;;;;3.60;1.25;;;8.30;82.20;;;;;;5026551;28;20034;-66
2022/04/02 13:04:04;;;;;;;0.75;0.73;;;8.30;83.10;;;;;;5026990;28;20046;-66
2022/04/02 13:06:32;;;;;;;1.27;0.80;;;8.30;82.30;;;;;;5026467;28;20026;-67
2022/04/02 13:09:23;;;;;;;2.45;0.88;;;8.30;82.20;;;;;;5026211;28;20055;-65
2022/04/02 13:12:03;;;;;;;2.88;1.20;;;8.30;82.70;;;;;;5028976;28;20380;-65
2022/04/02 13:14:35;;;;;;;2.03;1.25;;;8.30;81.70;;;;;;5028590;28;20033;-65
2022/04/02 13:17:18;;;;;;;2.63;0.93;;;8.40;82.20;;;;;;5029742;28;20033;-65
2022/04/02 13:22:49;;;;;;;0.80;0.80;;;8.40;83.20;;;;;;5031874;28;20416;-70
2022/04/02 13:25:23;;;;;;;1.52;1.13;;;8.50;82.50;;;;;;5031465;28;20052;-64
2022/04/02 13:28:16;;;;;;;3.67;1.02;;;8.40;81.00;;;;;;5032061;28;20120;-64
2022/04/02 13:30:50;;;;;;;2.65;0.88;;;8.50;78.50;;;;;;5031840;28;20044;-63